Time;durP1;ratioP1;P1;durP2;ratioP2;P2;SDS_P1;SDS_P2;PMS_P1;PMS_P2;Temp;Humidity;BMP_temperature;BMP_pressure;BME280_temperature;BME280_humidity;BME280_pressure;Samples;Min_cycle;Max_cycle;Signal;HPM_P1;HPM_P2
2024/01/01 00:00:17;;;;;;;104.88;55.47;;;1.80;99.90;;;;;;5064617;28;20021;-78
2024/01/01 00:02:43;;;;;;;115.47;59.97;;;1.70;99.90;;;;;;5074314;28;20025;-79
2024/01/01 00:05:09;;;;;;;121.57;63.08;;;1.70;99.90;;;;;;5077406;28;20098;-78
2024/01/01 00:07:35;;;;;;;111.35;58.63;;;1.80;99.90;;;;;;5082539;28;20103;-77
2024/01/01 00:10:00;;;;;;;122.85;62.75;;;1.70;99.90;;;;;;5063821;28;20480;-77
2024/01/01 00:12:26;;;;;;;120.90;60.25;;;1.70;99.90;;;;;;5069143;28;20543;-78
2024/01/01 00:14:52;;;;;;;117.35;60.95;;;1.70;99.90;;;;;;5070442;28;20075;-77
2024/01/01 00:17:18;;;;;;;118.97;62.13;;;1.70;99.90;;;;;;5076072;28;20063;-77
2024/01/01 00:19:43;;;;;;;112.63;57.42;;;1.70;99.90;;;;;;5058071;28;20482;-78
2024/01/01 00:22:09;;;;;;;113.22;55.15;;;1.70;99.90;;;;;;5076225;28;20527;-77
2024/01/01 00:24:35;;;;;;;93.43;50.80;;;1.70;99.90;;;;;;5073093;28;20037;-77
2024/01/01 00:27:00;;;;;;;88.40;46.03;;;1.60;99.90;;;;;;5079283;28;20020;-77
2024/01/01 00:29:27;;;;;;;98.03;47.25;;;1.50;99.90;;;;;;5057464;28;20035;-78
2024/01/01 00:31:52;;;;;;;85.63;42.03;;;1.50;99.90;;;;;;5063431;28;20039;-77
2024/01/01 00:34:18;;;;;;;76.07;41.92;;;1.50;99.90;;;;;;5070043;28;20040;-78
2024/01/01 00:36:44;;;;;;;77.03;38.55;;;1.40;99.90;;;;;;5080956;28;20456;-79
2024/01/01 00:39:10;;;;;;;81.85;40.17;;;1.40;99.90;;;;;;5086357;28;20086;-77
2024/01/01 00:41:38;;;;;;;75.78;40.13;;;1.30;99.90;;;;;;5080905;28;20027;-77
2024/01/01 00:44:04;;;;;;;74.43;37.95;;;1.20;99.90;;;;;;5086494;28;20119;-77
2024/01/01 00:46:30;;;;;;;76.65;41.80;;;1.20;99.90;;;;;;5072382;28;20028;-77
2024/01/01 00:48:56;;;;;;;84.60;41.13;;;1.20;99.90;;;;;;5075596;28;20025;-77
2024/01/01 00:51:22;;;;;;;75.80;38.78;;;1.10;99.90;;;;;;5060713;28;20021;-77
2024/01/01 00:53:48;;;;;;;79.00;41.80;;;1.10;99.90;;;;;;5068062;28;20035;-82
2024/01/01 00:56:13;;;;;;;86.25;42.15;;;1.10;99.90;;;;;;5063038;28;20055;-81
2024/01/01 00:58:40;;;;;;;87.97;43.85;;;1.00;99.90;;;;;;5068429;28;20024;-81
2024/01/01 01:01:07;;;;;;;85.47;42.30;;;1.00;99.90;;;;;;5074828;28;20028;-81
2024/01/01 01:03:34;;;;;;;78.93;41.63;;;1.00;99.90;;;;;;5061896;28;20466;-80
2024/01/01 01:06:00;;;;;;;69.60;37.67;;;1.00;99.90;;;;;;5080467;28;20036;-79
2024/01/01 01:08:25;;;;;;;77.82;38.42;;;1.00;99.90;;;;;;5071779;28;20029;-80
2024/01/01 01:10:51;;;;;;;67.85;35.78;;;1.00;99.90;;;;;;5062666;28;20044;-80
2024/01/01 01:13:17;;;;;;;59.00;33.63;;;0.90;99.90;;;;;;5058448;28;20040;-79
2024/01/01 01:15:42;;;;;;;57.60;33.55;;;0.90;99.90;;;;;;5058214;28;20090;-80
2024/01/01 01:18:08;;;;;;;63.85;31.23;;;0.90;99.90;;;;;;5073010;28;20074;-80
2024/01/01 01:20:34;;;;;;;59.55;31.50;;;0.90;99.90;;;;;;5061825;28;20021;-80
2024/01/01 01:22:59;;;;;;;63.63;32.08;;;0.90;99.90;;;;;;5060211;28;20099;-80
2024/01/01 01:25:25;;;;;;;58.40;30.17;;;0.80;99.90;;;;;;5079306;28;20044;-79
2024/01/01 01:27:51;;;;;;;62.53;31.50;;;0.80;99.90;;;;;;5058150;28;20016;-78
2024/01/01 01:30:16;;;;;;;69.82;33.80;;;0.80;99.90;;;;;;5076211;28;20043;-78
2024/01/01 01:32:42;;;;;;;76.55;40.00;;;0.80;99.90;;;;;;5086666;28;20025;-79
2024/01/01 01:35:08;;;;;;;79.72;41.53;;;0.80;99.90;;;;;;5073449;28;20055;-78
2024/01/01 01:37:34;;;;;;;78.95;39.75;;;0.80;99.90;;;;;;5069172;28;20012;-78
2024/01/01 01:40:00;;;;;;;81.43;42.35;;;0.80;99.90;;;;;;5053854;28;20040;-77
2024/01/01 01:42:25;;;;;;;85.80;41.53;;;0.70;99.90;;;;;;5055157;28;20050;-76
2024/01/01 01:44:51;;;;;;;86.60;43.25;;;0.70;99.90;;;;;;5071996;28;20516;-76
2024/01/01 01:47:17;;;;;;;79.57;42.67;;;0.70;99.90;;;;;;5075914;28;20048;-79
2024/01/01 01:49:43;;;;;;;87.55;45.60;;;0.70;99.90;;;;;;5055135;28;20025;-78
2024/01/01 01:52:10;;;;;;;89.65;46.90;;;0.70;99.90;;;;;;5073169;28;20021;-77
2024/01/01 01:54:36;;;;;;;97.10;48.42;;;0.70;99.90;;;;;;5046202;28;20021;-78
2024/01/01 01:57:05;;;;;;;95.50;44.47;;;0.70;99.90;;;;;;5069397;28;20466;-77
2024/01/01 01:59:31;;;;;;;86.78;45.65;;;0.70;99.90;;;;;;5054806;28;20017;-79
2024/01/01 02:01:57;;;;;;;87.57;47.53;;;0.70;99.90;;;;;;5054607;28;20466;-77
2024/01/01 02:04:26;;;;;;;87.68;45.80;;;0.70;99.90;;;;;;5072909;28;20030;-78
2024/01/01 02:06:51;;;;;;;95.28;48.53;;;0.60;99.90;;;;;;5072533;28;20028;-78
2024/01/01 02:09:17;;;;;;;99.03;48.90;;;0.60;99.90;;;;;;5054968;28;20012;-79
2024/01/01 02:11:43;;;;;;;91.75;47.60;;;0.60;99.90;;;;;;5054726;28;20447;-77
2024/01/01 02:14:11;;;;;;;86.55;44.65;;;0.60;99.90;;;;;;5071865;28;20382;-78
2024/01/01 02:16:37;;;;;;;93.13;44.67;;;0.60;99.90;;;;;;5054880;28;20031;-76
2024/01/01 02:19:05;;;;;;;91.40;48.08;;;0.60;99.90;;;;;;5054867;28;20008;-77
2024/01/01 02:21:31;;;;;;;84.07;45.67;;;0.60;99.90;;;;;;5054680;28;20020;-77
2024/01/01 02:23:57;;;;;;;85.20;42.05;;;0.60;99.90;;;;;;5054770;28;20089;-76
2024/01/01 02:26:23;;;;;;;88.30;43.95;;;0.60;99.90;;;;;;5072924;28;20024;-77
2024/01/01 02:28:48;;;;;;;80.68;40.30;;;0.60;99.90;;;;;;5072467;28;20033;-79
2024/01/01 02:31:14;;;;;;;81.32;41.88;;;0.60;99.90;;;;;;5072594;28;20036;-77
2024/01/01 02:33:39;;;;;;;89.70;43.53;;;0.60;99.90;;;;;;5077386;28;20032;-77
2024/01/01 02:36:05;;;;;;;86.22;42.13;;;0.60;99.90;;;;;;5074775;28;20024;-79
2024/01/01 02:38:31;;;;;;;86.93;42.72;;;0.60;99.90;;;;;;5072386;28;20043;-79
2024/01/01 02:40:56;;;;;;;87.85;44.60;;;0.60;99.90;;;;;;5054523;28;20086;-78
2024/01/01 02:43:22;;;;;;;82.25;42.67;;;0.60;99.90;;;;;;5054610;28;20039;-80
2024/01/01 02:45:48;;;;;;;77.95;42.08;;;0.50;99.90;;;;;;5072518;28;20036;-80
2024/01/01 02:48:13;;;;;;;77.40;41.65;;;0.50;99.90;;;;;;5072594;28;20081;-80
2024/01/01 02:50:39;;;;;;;82.55;42.92;;;0.50;99.90;;;;;;5054209;28;20071;-80
2024/01/01 02:53:05;;;;;;;79.90;41.72;;;0.50;99.90;;;;;;5072354;28;20069;-79
2024/01/01 02:55:30;;;;;;;91.07;43.67;;;0.50;99.90;;;;;;5072421;28;20008;-77
2024/01/01 02:57:56;;;;;;;83.18;41.55;;;0.50;99.90;;;;;;5072345;28;20033;-78
2024/01/01 03:00:21;;;;;;;79.80;42.33;;;0.60;99.90;;;;;;5072237;28;20056;-78
2024/01/01 03:02:50;;;;;;;80.93;41.40;;;0.50;99.90;;;;;;5072183;28;20103;-78
2024/01/01 03:05:15;;;;;;;84.38;43.50;;;0.60;99.90;;;;;;5054132;28;20028;-79
2024/01/01 03:07:42;;;;;;;106.03;48.08;;;0.60;99.90;;;;;;5072188;28;20444;-78
2024/01/01 03:10:09;;;;;;;83.80;44.85;;;0.70;99.90;;;;;;5054408;28;20017;-77
2024/01/01 03:12:35;;;;;;;89.15;46.63;;;0.70;99.90;;;;;;5054222;28;20032;-78
2024/01/01 03:15:02;;;;;;;88.80;43.92;;;0.70;99.90;;;;;;5071686;28;20093;-78
2024/01/01 03:17:28;;;;;;;84.72;46.15;;;0.70;99.90;;;;;;5072490;28;20103;-78
2024/01/01 03:19:54;;;;;;;102.35;46.78;;;0.70;99.90;;;;;;5053496;28;20108;-79
2024/01/01 03:22:19;;;;;;;90.90;45.67;;;0.80;99.90;;;;;;5054294;28;20028;-79
2024/01/01 03:24:45;;;;;;;88.40;45.25;;;0.80;99.90;;;;;;5070332;28;20398;-79
2024/01/01 03:27:11;;;;;;;98.97;48.33;;;0.80;99.90;;;;;;5075888;28;20100;-80
2024/01/01 03:29:37;;;;;;;103.45;53.05;;;0.80;99.90;;;;;;5046676;28;20147;-79
2024/01/01 03:32:02;;;;;;;103.53;50.95;;;0.80;99.90;;;;;;5075744;28;20064;-79
2024/01/01 03:34:28;;;;;;;106.47;49.42;;;0.80;99.90;;;;;;5055216;28;20017;-79
2024/01/01 03:36:54;;;;;;;120.38;63.58;;;0.80;99.90;;;;;;5074574;28;20179;-78
2024/01/01 03:39:19;;;;;;;108.10;49.15;;;0.80;99.90;;;;;;5075995;28;20462;-79
2024/01/01 03:41:45;;;;;;;94.65;44.78;;;0.80;99.90;;;;;;5075576;28;20025;-79
2024/01/01 03:44:12;;;;;;;99.05;50.10;;;0.90;99.90;;;;;;5057653;28;20460;-81
2024/01/01 03:46:37;;;;;;;112.50;49.63;;;0.90;99.90;;;;;;5075640;28;20035;-80
2024/01/01 03:49:03;;;;;;;112.50;52.05;;;1.00;99.90;;;;;;5057560;28;20017;-79
2024/01/01 03:51:29;;;;;;;118.00;52.42;;;1.10;99.90;;;;;;5075515;28;20031;-79
2024/01/01 03:53:54;;;;;;;111.82;53.05;;;1.20;99.90;;;;;;5075341;28;20027;-78
2024/01/01 03:56:20;;;;;;;134.95;57.00;;;1.30;99.90;;;;;;5075637;28;20035;-78
2024/01/01 03:58:45;;;;;;;128.63;55.63;;;1.40;99.90;;;;;;5072955;28;20031;-78
2024/01/01 04:01:13;;;;;;;117.00;53.83;;;1.40;99.90;;;;;;5057257;28;20107;-78
2024/01/01 04:03:39;;;;;;;116.05;52.83;;;1.40;99.90;;;;;;5071347;28;20025;-77
2024/01/01 04:06:05;;;;;;;134.07;56.20;;;1.40;99.90;;;;;;5057181;28;20032;-79
2024/01/01 04:08:31;;;;;;;138.60;60.88;;;1.40;99.90;;;;;;5057226;28;20028;-77
2024/01/01 04:10:57;;;;;;;135.73;55.60;;;1.50;99.90;;;;;;5046732;28;20072;-77
2024/01/01 04:13:22;;;;;;;97.78;47.15;;;1.50;99.90;;;;;;5075347;28;20028;-78
2024/01/01 04:15:48;;;;;;;116.38;53.40;;;1.50;99.90;;;;;;5075398;28;20048;-78
2024/01/01 04:18:14;;;;;;;134.60;53.70;;;1.50;99.90;;;;;;5075077;28;20497;-78
2024/01/01 04:20:39;;;;;;;133.25;59.63;;;1.40;99.90;;;;;;5057107;28;20023;-78
2024/01/01 04:23:05;;;;;;;129.13;59.75;;;1.40;99.90;;;;;;5057157;28;20377;-78
2024/01/01 04:25:30;;;;;;;125.75;58.78;;;1.40;99.90;;;;;;5074674;28;20034;-79
2024/01/01 04:27:56;;;;;;;119.45;54.45;;;1.30;99.90;;;;;;5056699;28;20021;-79
2024/01/01 04:30:22;;;;;;;118.03;54.20;;;1.40;99.90;;;;;;5057116;28;20032;-79
2024/01/01 04:32:47;;;;;;;118.85;54.25;;;1.40;99.90;;;;;;5056531;28;20186;-78
2024/01/01 04:35:13;;;;;;;107.38;52.05;;;1.40;99.90;;;;;;5074766;28;20390;-79
2024/01/01 04:37:40;;;;;;;88.45;44.42;;;1.40;99.90;;;;;;5073474;28;20105;-79
2024/01/01 04:40:06;;;;;;;109.32;51.85;;;1.40;99.90;;;;;;5074639;28;20017;-78
2024/01/01 04:42:32;;;;;;;109.40;52.95;;;1.40;99.90;;;;;;5074526;28;20107;-78
2024/01/01 04:44:58;;;;;;;93.32;47.28;;;1.40;99.90;;;;;;5056593;28;20119;-79
2024/01/01 04:47:23;;;;;;;119.05;52.67;;;1.50;99.90;;;;;;5074495;28;20485;-77
2024/01/01 04:49:49;;;;;;;114.82;53.10;;;1.50;99.90;;;;;;5074547;28;20063;-77
2024/01/01 04:52:14;;;;;;;106.57;50.75;;;1.60;99.90;;;;;;5074353;28;20039;-79
2024/01/01 04:54:40;;;;;;;106.95;48.30;;;1.70;99.90;;;;;;5056459;28;20036;-78
2024/01/01 04:57:05;;;;;;;95.45;45.28;;;1.70;99.90;;;;;;5074404;28;20051;-78
2024/01/01 04:59:31;;;;;;;101.38;48.25;;;1.80;99.90;;;;;;5056214;28;20066;-78
2024/01/01 05:01:57;;;;;;;94.32;45.38;;;1.80;99.90;;;;;;5074127;28;20062;-77
2024/01/01 05:04:22;;;;;;;86.95;40.50;;;1.90;99.90;;;;;;5056052;28;20060;-78
2024/01/01 05:06:48;;;;;;;146.68;74.75;;;1.80;99.90;;;;;;5056180;28;20123;-78
2024/01/01 05:09:14;;;;;;;107.97;55.67;;;1.90;99.90;;;;;;5074042;28;20021;-79
2024/01/01 05:11:42;;;;;;;110.63;52.30;;;1.90;99.90;;;;;;5074328;28;20028;-77
2024/01/01 05:14:08;;;;;;;90.50;43.03;;;1.90;99.90;;;;;;5074039;28;20024;-78
2024/01/01 05:16:35;;;;;;;90.28;42.40;;;1.90;99.90;;;;;;5056162;28;20047;-79
2024/01/01 05:19:01;;;;;;;105.47;48.95;;;1.90;99.90;;;;;;5055812;28;20074;-77
2024/01/01 05:21:27;;;;;;;91.22;43.42;;;1.90;99.90;;;;;;5074080;28;20024;-78
2024/01/01 05:23:52;;;;;;;89.10;41.00;;;1.90;99.90;;;;;;5055828;28;20024;-77
2024/01/01 05:26:18;;;;;;;108.68;51.92;;;1.90;99.90;;;;;;5055976;28;20516;-77
2024/01/01 05:28:44;;;;;;;90.40;41.53;;;1.90;99.90;;;;;;5055599;28;20017;-78
2024/01/01 05:31:09;;;;;;;96.70;45.00;;;1.90;99.90;;;;;;5055896;28;20024;-79
2024/01/01 05:33:38;;;;;;;83.65;42.45;;;1.90;99.90;;;;;;5050501;28;20127;-79
2024/01/01 05:36:12;;;;;;;84.63;43.40;;;1.90;99.90;;;;;;5041939;28;20028;-77
2024/01/01 05:38:38;;;;;;;96.05;44.70;;;1.90;99.90;;;;;;5055674;28;20016;-77
2024/01/01 05:41:04;;;;;;;86.13;40.70;;;1.90;99.90;;;;;;5073418;28;20036;-77
2024/01/01 05:43:31;;;;;;;79.78;38.97;;;1.90;99.90;;;;;;5055625;28;20410;-77
2024/01/01 05:45:57;;;;;;;85.90;42.15;;;1.90;99.90;;;;;;5044493;28;20144;-78
2024/01/01 05:48:23;;;;;;;84.63;40.75;;;1.90;99.90;;;;;;5071249;28;20021;-79
2024/01/01 05:50:48;;;;;;;72.07;36.88;;;1.90;99.90;;;;;;5072734;28;20047;-77
2024/01/01 05:53:14;;;;;;;82.97;41.00;;;1.90;99.90;;;;;;5072869;28;20025;-79
2024/01/01 05:55:39;;;;;;;85.97;38.78;;;1.90;99.90;;;;;;5073133;28;20021;-79
2024/01/01 05:58:05;;;;;;;78.32;37.63;;;1.90;99.90;;;;;;5055071;28;20025;-79
2024/01/01 06:00:36;;;;;;;66.00;33.92;;;1.90;99.90;;;;;;5047642;28;20489;-77
2024/01/01 06:03:05;;;;;;;74.88;35.03;;;1.90;99.90;;;;;;5070144;28;20442;-77
2024/01/01 06:05:35;;;;;;;65.40;34.47;;;1.90;99.90;;;;;;5054988;28;20047;-78
2024/01/01 06:08:04;;;;;;;75.28;35.90;;;1.90;99.90;;;;;;5072430;28;20021;-78
2024/01/01 06:10:31;;;;;;;66.15;34.60;;;1.90;99.90;;;;;;5073031;28;20021;-78
2024/01/01 06:12:57;;;;;;;68.55;33.40;;;2.00;99.90;;;;;;5054245;28;20020;-78
2024/01/01 06:15:24;;;;;;;70.32;34.25;;;2.00;99.90;;;;;;5054914;28;20029;-77
2024/01/01 06:17:50;;;;;;;73.68;37.85;;;2.10;99.90;;;;;;5072609;28;20066;-77
2024/01/01 06:20:16;;;;;;;87.80;42.17;;;2.10;99.90;;;;;;5050359;28;20017;-78
2024/01/01 06:22:43;;;;;;;75.13;37.63;;;2.10;99.90;;;;;;5054741;28;20016;-77
2024/01/01 06:25:10;;;;;;;65.20;33.45;;;2.20;99.90;;;;;;5071105;28;20422;-77
2024/01/01 06:27:36;;;;;;;66.75;32.50;;;2.20;99.90;;;;;;5071313;28;20049;-78
2024/01/01 06:30:03;;;;;;;65.43;31.30;;;2.20;99.90;;;;;;5054680;28;20046;-78
2024/01/01 06:32:28;;;;;;;56.55;28.58;;;2.30;99.90;;;;;;5072367;28;20052;-78
2024/01/01 06:34:54;;;;;;;53.45;27.05;;;2.30;99.90;;;;;;5054554;28;20474;-77
2024/01/01 06:37:20;;;;;;;56.53;29.27;;;2.40;99.90;;;;;;5072367;28;20091;-77
2024/01/01 06:39:45;;;;;;;53.80;27.15;;;2.40;99.90;;;;;;5072353;28;20427;-77
2024/01/01 06:42:11;;;;;;;55.72;26.42;;;2.40;99.90;;;;;;5050440;28;20039;-79
2024/01/01 06:44:37;;;;;;;49.60;26.80;;;2.40;99.90;;;;;;5054291;28;20394;-77
2024/01/01 06:47:03;;;;;;;54.22;28.27;;;2.40;99.90;;;;;;5071000;28;20016;-78
2024/01/01 06:49:29;;;;;;;47.38;24.42;;;2.50;99.90;;;;;;5072255;28;20361;-77
2024/01/01 06:51:55;;;;;;;51.60;23.60;;;2.50;99.90;;;;;;5044206;28;20103;-77
2024/01/01 06:54:20;;;;;;;53.15;25.33;;;2.50;99.90;;;;;;5054620;28;20020;-77
2024/01/01 06:56:46;;;;;;;41.28;23.00;;;2.60;99.90;;;;;;5054209;28;20470;-79
2024/01/01 06:59:13;;;;;;;46.42;23.20;;;2.60;99.90;;;;;;5054164;28;20496;-79
2024/01/01 07:01:41;;;;;;;41.60;20.80;;;2.70;99.90;;;;;;5053431;28;20366;-77
2024/01/01 07:04:07;;;;;;;47.40;23.25;;;2.80;99.90;;;;;;5063834;28;20427;-77
2024/01/01 07:06:33;;;;;;;48.00;24.58;;;2.70;99.90;;;;;;5054221;28;20040;-78
2024/01/01 07:09:00;;;;;;;47.05;23.60;;;2.70;99.90;;;;;;5053990;28;20027;-78
2024/01/01 07:11:26;;;;;;;49.47;23.58;;;2.70;99.90;;;;;;5071364;28;20020;-78
2024/01/01 07:13:51;;;;;;;36.90;21.75;;;2.70;99.90;;;;;;5053478;28;20035;-77
2024/01/01 07:16:20;;;;;;;47.42;24.75;;;2.70;99.90;;;;;;5072182;28;20067;-77
2024/01/01 07:18:46;;;;;;;46.55;23.38;;;2.70;99.90;;;;;;5071599;28;20090;-78
2024/01/01 07:21:12;;;;;;;47.75;22.42;;;2.70;99.90;;;;;;5054011;28;20409;-79
2024/01/01 07:23:37;;;;;;;48.22;24.42;;;2.70;99.90;;;;;;5071556;28;20024;-79
2024/01/01 07:26:04;;;;;;;50.90;26.85;;;2.70;99.90;;;;;;5071720;28;20039;-80
2024/01/01 07:28:29;;;;;;;54.65;30.17;;;2.60;99.90;;;;;;5071766;28;20099;-79
2024/01/01 07:30:57;;;;;;;69.40;32.33;;;2.50;99.90;;;;;;5071517;28;20077;-80
2024/01/01 07:33:23;;;;;;;70.93;33.13;;;2.50;99.90;;;;;;5049379;28;20402;-79
2024/01/01 07:35:48;;;;;;;74.20;35.25;;;2.40;99.90;;;;;;5049674;28;20025;-79
2024/01/01 07:38:14;;;;;;;70.07;34.50;;;2.40;99.90;;;;;;5048546;28;20032;-78
2024/01/01 07:40:41;;;;;;;68.65;31.95;;;2.30;99.90;;;;;;5052395;28;20044;-81
2024/01/01 07:43:06;;;;;;;68.38;34.70;;;2.40;99.90;;;;;;5052469;28;20025;-79
2024/01/01 07:45:32;;;;;;;69.63;32.22;;;2.30;99.90;;;;;;5055427;28;20093;-78
2024/01/01 07:47:58;;;;;;;76.03;35.97;;;2.30;99.90;;;;;;5055478;28;20077;-81
2024/01/01 07:50:23;;;;;;;64.65;31.88;;;2.30;99.90;;;;;;5061259;28;20032;-77
2024/01/01 07:52:49;;;;;;;67.85;32.10;;;2.30;99.90;;;;;;5075096;28;20013;-77
2024/01/01 07:55:15;;;;;;;73.15;35.33;;;2.30;99.90;;;;;;5058460;28;20052;-79
2024/01/01 07:57:41;;;;;;;70.82;33.72;;;2.30;99.90;;;;;;5054470;28;20021;-78
2024/01/01 08:00:09;;;;;;;67.80;31.92;;;2.20;99.90;;;;;;5055178;28;20013;-78
2024/01/01 08:02:35;;;;;;;70.32;33.78;;;2.20;99.90;;;;;;5072052;28;20563;-79
2024/01/01 08:05:01;;;;;;;58.50;30.95;;;2.20;99.90;;;;;;5073334;28;20044;-79
2024/01/01 08:07:27;;;;;;;68.40;34.10;;;2.10;99.90;;;;;;5071268;28;20020;-79
2024/01/01 08:09:53;;;;;;;66.40;29.80;;;2.20;99.90;;;;;;5070925;28;20389;-79
2024/01/01 08:12:18;;;;;;;73.88;32.50;;;2.10;99.90;;;;;;5086375;28;20085;-80
2024/01/01 08:14:44;;;;;;;64.82;31.83;;;2.10;99.90;;;;;;5073252;28;20032;-80
2024/01/01 08:17:10;;;;;;;69.90;30.55;;;2.10;99.90;;;;;;5073655;28;20500;-77
2024/01/01 08:19:35;;;;;;;61.80;29.38;;;2.10;99.90;;;;;;5075967;28;20394;-78
2024/01/01 08:22:01;;;;;;;58.95;29.23;;;2.10;99.90;;;;;;5076516;28;20046;-79
2024/01/01 08:24:27;;;;;;;59.38;30.90;;;2.10;99.90;;;;;;5060340;28;20024;-78
2024/01/01 08:26:52;;;;;;;63.60;32.85;;;2.10;99.90;;;;;;5076801;28;20033;-78
2024/01/01 08:29:21;;;;;;;70.28;35.65;;;2.10;99.90;;;;;;5060404;28;20024;-79
2024/01/01 08:31:47;;;;;;;67.78;35.08;;;2.10;99.90;;;;;;5058169;28;20021;-78
2024/01/01 08:34:13;;;;;;;68.68;31.73;;;2.00;99.90;;;;;;5063912;28;20027;-79
2024/01/01 08:36:38;;;;;;;57.40;28.50;;;2.10;99.90;;;;;;5058058;28;20036;-80
2024/01/01 08:39:04;;;;;;;43.25;24.40;;;2.10;99.90;;;;;;5063706;28;20031;-79
2024/01/01 08:41:29;;;;;;;49.38;24.83;;;2.10;99.90;;;;;;5079642;28;20024;-79
2024/01/01 08:43:58;;;;;;;42.80;24.60;;;2.10;99.90;;;;;;5068251;28;20027;-80
2024/01/01 08:46:24;;;;;;;47.72;25.13;;;2.20;99.90;;;;;;5077639;28;20386;-79
2024/01/01 08:48:53;;;;;;;50.47;26.13;;;2.20;99.90;;;;;;5058010;28;20039;-80
2024/01/01 08:51:19;;;;;;;45.10;25.13;;;2.20;99.90;;;;;;5072658;28;20488;-80
2024/01/01 08:53:45;;;;;;;41.85;22.20;;;2.20;99.90;;;;;;5067276;28;20040;-77
2024/01/01 08:56:10;;;;;;;22.20;13.75;;;2.20;99.90;;;;;;5064806;28;20074;-78
2024/01/01 08:58:36;;;;;;;19.50;10.13;;;2.20;99.90;;;;;;5061985;28;20020;-78
2024/01/01 09:01:02;;;;;;;20.20;10.52;;;2.20;99.90;;;;;;5080939;28;20027;-78
2024/01/01 09:03:29;;;;;;;21.48;11.13;;;2.20;99.90;;;;;;5054525;28;20052;-78
2024/01/01 09:05:57;;;;;;;21.35;11.18;;;2.20;99.90;;;;;;5084821;28;20047;-78
2024/01/01 09:08:23;;;;;;;27.63;12.07;;;2.20;99.90;;;;;;5062992;28;20019;-78
2024/01/01 09:10:49;;;;;;;22.73;12.00;;;2.20;99.90;;;;;;5071236;28;20023;-78
2024/01/01 09:13:14;;;;;;;40.78;16.58;;;2.20;99.90;;;;;;5073066;28;20024;-78
2024/01/01 09:15:40;;;;;;;17.33;9.82;;;2.20;99.90;;;;;;5086681;28;20017;-77
2024/01/01 09:18:07;;;;;;;15.60;8.75;;;2.20;99.90;;;;;;5070364;28;20017;-77
2024/01/01 09:20:33;;;;;;;16.58;9.93;;;2.20;99.90;;;;;;5084957;28;20013;-77
2024/01/01 09:22:59;;;;;;;7.90;5.53;;;2.20;99.90;;;;;;5086955;28;20090;-77
2024/01/01 09:25:25;;;;;;;9.50;6.30;;;2.20;99.90;;;;;;5056353;28;20033;-77
2024/01/01 09:27:51;;;;;;;10.68;5.53;;;2.10;99.90;;;;;;5075586;28;20482;-78
2024/01/01 09:30:19;;;;;;;10.63;6.20;;;2.10;99.90;;;;;;5056550;28;20025;-79
2024/01/01 09:32:45;;;;;;;10.60;6.35;;;2.10;99.90;;;;;;5078230;28;20047;-77
2024/01/01 09:35:10;;;;;;;10.90;6.50;;;2.20;99.90;;;;;;5084694;28;20048;-78
2024/01/01 09:37:37;;;;;;;16.77;8.63;;;2.10;99.90;;;;;;5085194;28;20521;-78
2024/01/01 09:40:06;;;;;;;18.85;8.25;;;2.10;99.90;;;;;;5082849;28;20500;-78
2024/01/01 09:42:31;;;;;;;12.02;6.45;;;2.10;99.90;;;;;;5080548;28;20024;-78
2024/01/01 09:44:57;;;;;;;11.35;6.70;;;2.10;99.90;;;;;;5056240;28;20033;-78
2024/01/01 09:47:23;;;;;;;10.05;6.50;;;2.10;99.90;;;;;;5076480;28;20071;-78
2024/01/01 09:49:49;;;;;;;35.88;20.13;;;2.10;99.90;;;;;;5060879;28;20130;-79
2024/01/01 09:52:15;;;;;;;31.23;19.77;;;2.00;99.90;;;;;;5061233;28;20023;-79
2024/01/01 09:54:41;;;;;;;44.60;23.45;;;2.00;99.90;;;;;;5054498;28;20027;-78
2024/01/01 09:57:07;;;;;;;22.30;14.48;;;1.90;99.90;;;;;;5060934;28;20028;-79
2024/01/01 09:59:36;;;;;;;31.38;18.00;;;1.90;99.90;;;;;;5060528;28;20028;-77
2024/01/01 10:02:09;;;;;;;72.80;45.13;;;1.80;99.90;;;;;;5063363;28;20024;-78
2024/01/01 10:04:35;;;;;;;85.93;56.15;;;1.80;99.90;;;;;;5078151;28;20078;-77
2024/01/01 10:07:01;;;;;;;86.07;52.40;;;1.70;99.90;;;;;;5075577;28;20024;-79
2024/01/01 10:09:28;;;;;;;35.42;23.98;;;1.60;99.90;;;;;;5075186;28;20020;-78
2024/01/01 10:12:09;;;;;;;121.47;71.68;;;1.60;99.90;;;;;;5076149;28;20432;-80
2024/01/01 10:14:44;;;;;;;46.90;21.33;;;1.60;99.90;;;;;;5056726;28;20070;-78
2024/01/01 10:17:15;;;;;;;375.67;146.18;;;1.50;99.90;;;;;;5055013;28;20470;-78
2024/01/01 10:19:59;;;;;;;255.05;94.72;;;1.50;99.90;;;;;;5058679;28;20052;-79
2024/01/01 10:22:32;;;;;;;227.77;86.25;;;1.40;99.90;;;;;;5069647;28;20020;-79
2024/01/01 10:25:10;;;;;;;;;;;1.40;99.90;;;;;;5057064;28;20074;-79
2024/01/01 10:27:38;;;;;;;199.55;70.13;;;1.40;99.90;;;;;;5053773;28;19904;-80
2024/01/01 10:30:06;;;;;;;305.75;117.07;;;1.40;99.90;;;;;;5071181;28;20020;-79
2024/01/01 10:32:33;;;;;;;284.45;105.65;;;1.40;99.90;;;;;;5060220;28;20489;-79
2024/01/01 10:35:01;;;;;;;78.43;32.50;;;1.30;99.90;;;;;;5053847;28;20031;-79
2024/01/01 10:37:28;;;;;;;30.35;12.85;;;1.30;99.90;;;;;;5072025;28;20458;-80
2024/01/01 10:39:55;;;;;;;101.53;38.35;;;1.20;99.90;;;;;;5053685;28;20016;-80
2024/01/01 10:42:20;;;;;;;158.98;68.75;;;1.20;99.90;;;;;;5074727;28;20028;-79
2024/01/01 10:44:46;;;;;;;25.77;12.82;;;1.10;99.90;;;;;;5054988;28;20074;-79
2024/01/01 10:47:14;;;;;;;14.77;9.13;;;1.00;99.90;;;;;;5055352;28;20012;-79
2024/01/01 10:49:56;;;;;;;22.67;11.48;;;1.00;99.90;;;;;;5055239;28;20028;-79
2024/01/01 10:52:35;;;;;;;14.32;9.32;;;0.90;99.90;;;;;;5072457;28;20043;-78
2024/01/01 10:55:19;;;;;;;9.80;6.53;;;0.90;99.90;;;;;;5071275;28;20071;-78
2024/01/01 10:58:04;;;;;;;9.55;5.82;;;0.80;99.90;;;;;;5069607;28;20052;-80
2024/01/01 11:00:53;;;;;;;9.40;4.97;;;0.80;99.90;;;;;;5057447;28;20054;-80
2024/01/01 11:03:19;;;;;;;9.23;6.10;;;0.80;99.90;;;;;;5070421;28;20082;-80
2024/01/01 11:05:47;;;;;;;7.28;4.65;;;0.80;99.90;;;;;;5057879;28;20074;-80
2024/01/01 11:08:13;;;;;;;7.15;5.95;;;0.70;99.90;;;;;;5052424;28;20008;-80
2024/01/01 11:10:44;;;;;;;10.98;5.78;;;0.70;99.90;;;;;;5053890;28;20103;-80
2024/01/01 11:13:33;;;;;;;12.77;7.55;;;0.70;99.90;;;;;;5066304;28;20491;-80
2024/01/01 11:16:06;;;;;;;20.45;10.88;;;0.70;99.90;;;;;;5059226;28;20107;-80
2024/01/01 11:18:33;;;;;;;22.15;11.82;;;0.60;99.90;;;;;;5058600;28;20044;-79
2024/01/01 11:21:02;;;;;;;31.95;14.70;;;0.60;99.90;;;;;;5053228;28;20028;-80
2024/01/01 11:23:47;;;;;;;43.33;21.42;;;0.60;99.90;;;;;;5053453;28;20031;-81
2024/01/01 11:26:25;;;;;;;45.53;22.80;;;0.60;99.90;;;;;;5044672;28;20032;-80
2024/01/01 11:29:01;;;;;;;60.85;29.15;;;0.60;99.90;;;;;;5057059;28;20219;-80
2024/01/01 11:31:28;;;;;;;64.95;29.60;;;0.60;99.90;;;;;;5049219;28;20028;-80
2024/01/01 11:34:16;;;;;;;45.90;20.45;;;0.60;99.90;;;;;;5058298;28;20097;-79
2024/01/01 11:36:41;;;;;;;87.32;36.92;;;0.60;99.90;;;;;;5052244;28;20124;-80
2024/01/01 11:39:08;;;;;;;180.65;66.63;;;0.60;99.90;;;;;;5078537;28;20425;-81
2024/01/01 11:41:34;;;;;;;133.80;48.08;;;0.60;99.90;;;;;;5058655;28;20489;-80
2024/01/01 11:44:14;;;;;;;178.90;62.72;;;0.60;99.90;;;;;;5074889;28;20033;-79
2024/01/01 11:46:40;;;;;;;198.70;69.25;;;0.60;99.90;;;;;;5055339;28;20085;-80
2024/01/01 11:49:07;;;;;;;347.50;112.80;;;0.60;99.90;;;;;;5063633;28;20036;-80
2024/01/01 11:51:53;;;;;;;96.18;34.05;;;0.60;99.90;;;;;;5058362;28;20116;-80
2024/01/01 11:54:19;;;;;;;32.35;14.25;;;0.60;99.90;;;;;;5057666;28;20064;-78
2024/01/01 11:56:46;;;;;;;27.10;12.98;;;0.60;99.90;;;;;;5081525;28;20115;-79
2024/01/01 11:59:13;;;;;;;376.83;122.95;;;0.50;99.90;;;;;;5060634;28;20021;-78
2024/01/01 12:01:41;;;;;;;535.38;172.20;;;0.60;99.90;;;;;;5061562;28;20060;-78
2024/01/01 12:04:08;;;;;;;242.80;65.20;;;0.50;99.90;;;;;;5057087;28;20017;-78
2024/01/01 12:06:36;;;;;;;207.82;51.28;;;0.60;99.90;;;;;;5079901;28;20068;-78
2024/01/01 12:09:14;;;;;;;133.38;32.85;;;0.60;99.90;;;;;;5056707;28;20031;-78
2024/01/01 12:11:41;;;;;;;245.30;76.60;;;0.60;99.90;;;;;;5058500;28;20090;-79
2024/01/01 12:14:08;;;;;;;569.30;234.25;;;0.60;99.90;;;;;;5058933;28;20048;-78
2024/01/01 12:16:35;;;;;;;746.22;283.10;;;0.60;99.90;;;;;;5058093;28;20740;-79
2024/01/01 12:19:12;;;;;;;273.55;80.57;;;0.60;99.90;;;;;;5078597;28;20589;-79
2024/01/01 12:21:40;;;;;;;172.82;47.22;;;0.60;99.90;;;;;;5056831;28;20025;-80
2024/01/01 12:24:08;;;;;;;71.20;25.38;;;0.60;99.90;;;;;;5056743;28;20032;-80
2024/01/01 12:26:34;;;;;;;33.75;17.13;;;0.60;99.90;;;;;;5073561;28;20066;-80
2024/01/01 12:29:10;;;;;;;31.70;16.02;;;0.60;99.90;;;;;;5059500;28;20023;-80
2024/01/01 12:31:37;;;;;;;94.53;31.60;;;0.60;99.90;;;;;;5069872;28;20054;-81
2024/01/01 12:34:04;;;;;;;297.17;104.68;;;0.60;99.90;;;;;;5081641;28;20494;-79